createdAt,value
2018-06-17T00:01:37.067Z,21.70
2018-06-17T00:04:04.008Z,21.70
2018-06-17T00:06:30.944Z,21.60
2018-06-17T00:08:58.137Z,21.60
2018-06-17T00:11:25.100Z,21.50
2018-06-17T00:13:52.043Z,21.50
2018-06-17T00:16:18.970Z,21.50
2018-06-17T00:18:46.018Z,21.50
2018-06-17T00:21:12.967Z,21.40
2018-06-17T00:23:39.942Z,21.40
2018-06-17T00:26:07.333Z,21.30
2018-06-17T00:28:34.380Z,21.30
2018-06-17T00:31:01.374Z,21.20
2018-06-17T00:33:28.349Z,21.20
2018-06-17T00:35:55.334Z,21.20
2018-06-17T00:38:22.272Z,21.20
2018-06-17T00:40:49.304Z,21.30
2018-06-17T00:43:16.405Z,21.20
2018-06-17T00:45:43.386Z,21.20
2018-06-17T00:48:10.648Z,21.20
2018-06-17T00:50:37.757Z,21.20
2018-06-17T00:53:04.751Z,21.20
2018-06-17T00:55:31.704Z,21.10
2018-06-17T00:57:58.636Z,21.10
2018-06-17T01:00:25.578Z,21.00
2018-06-17T01:02:52.520Z,20.90
2018-06-17T01:05:19.601Z,20.90
2018-06-17T01:07:46.554Z,20.80
2018-06-17T01:10:13.527Z,20.80
2018-06-17T01:12:40.643Z,20.70
2018-06-17T01:15:08.721Z,20.70
2018-06-17T01:17:36.172Z,20.70
2018-06-17T01:20:04.404Z,20.70
2018-06-17T01:22:31.437Z,20.60
2018-06-17T01:24:58.416Z,20.50
2018-06-17T01:27:25.327Z,20.50
2018-06-17T01:29:52.275Z,20.40
2018-06-17T01:32:19.226Z,20.30
2018-06-17T01:34:46.180Z,20.20
2018-06-17T01:37:13.092Z,20.20
2018-06-17T01:39:40.019Z,20.20
2018-06-17T01:42:06.943Z,20.20
2018-06-17T01:44:34.295Z,20.20
2018-06-17T01:47:01.459Z,20.20
2018-06-17T01:49:28.389Z,20.20
2018-06-17T01:51:55.321Z,20.20
2018-06-17T01:54:22.274Z,20.10
2018-06-17T01:56:49.209Z,20.10
2018-06-17T01:59:16.161Z,20.00
2018-06-17T02:01:43.251Z,20.00
2018-06-17T02:04:16.028Z,20.00
2018-06-17T02:06:48.754Z,20.00
2018-06-17T02:09:21.585Z,20.00
2018-06-17T02:11:54.486Z,19.90
2018-06-17T02:14:27.183Z,19.90
2018-06-17T02:17:05.336Z,19.90
2018-06-17T02:19:32.298Z,19.90
2018-06-17T02:21:59.375Z,19.80
2018-06-17T02:24:26.349Z,19.80
2018-06-17T02:26:53.414Z,19.80
2018-06-17T02:29:20.324Z,19.80
2018-06-17T02:31:47.290Z,19.70
2018-06-17T02:34:14.235Z,19.70
2018-06-17T02:36:41.195Z,19.70
2018-06-17T02:39:08.874Z,19.70
2018-06-17T02:41:36.517Z,19.70
2018-06-17T02:44:03.437Z,19.70
2018-06-17T02:46:36.318Z,19.70
2018-06-17T02:49:09.076Z,19.60
2018-06-17T02:51:41.891Z,19.60
2018-06-17T02:54:14.749Z,19.50
2018-06-17T02:56:41.697Z,19.50
2018-06-17T02:59:08.778Z,19.50
2018-06-17T03:01:35.717Z,19.50
2018-06-17T03:04:02.718Z,19.40
2018-06-17T03:06:29.636Z,19.50
2018-06-17T03:08:56.642Z,19.50
2018-06-17T03:11:23.592Z,19.40
2018-06-17T03:13:50.748Z,19.40
2018-06-17T03:16:17.722Z,19.40
2018-06-17T03:18:44.656Z,19.40
2018-06-17T03:21:11.591Z,19.40
2018-06-17T03:23:38.511Z,19.40
2018-06-17T03:26:11.181Z,19.40
2018-06-17T03:28:43.945Z,19.40
2018-06-17T03:31:17.624Z,19.40
2018-06-17T03:33:45.693Z,19.40
2018-06-17T03:36:12.820Z,19.40
2018-06-17T03:38:41.113Z,19.40
2018-06-17T03:41:08.443Z,19.40
2018-06-17T03:43:35.515Z,19.40
2018-06-17T03:46:02.706Z,19.40
2018-06-17T03:48:29.665Z,19.40
2018-06-17T03:50:56.840Z,19.40
2018-06-17T03:53:23.832Z,19.50
2018-06-17T03:55:50.839Z,19.50
2018-06-17T03:58:17.750Z,19.50
2018-06-17T04:00:44.837Z,19.60
2018-06-17T04:03:11.771Z,19.60
2018-06-17T04:05:38.679Z,19.60
2018-06-17T04:08:05.634Z,19.70
2018-06-17T04:10:32.624Z,19.80
2018-06-17T04:12:59.581Z,19.80
2018-06-17T04:15:26.537Z,19.80
2018-06-17T04:17:53.576Z,20.00
2018-06-17T04:20:20.530Z,20.00
2018-06-17T04:22:47.518Z,20.10
2018-06-17T04:25:14.488Z,20.10
2018-06-17T04:27:41.417Z,20.20
2018-06-17T04:30:08.373Z,20.20
2018-06-17T04:32:35.307Z,20.30
2018-06-17T04:35:02.225Z,20.40
2018-06-17T04:37:29.259Z,20.50
2018-06-17T04:39:56.438Z,20.70
2018-06-17T04:42:23.356Z,21.00
2018-06-17T04:44:50.281Z,21.30
2018-06-17T04:47:17.206Z,22.00
2018-06-17T04:49:44.137Z,22.50
2018-06-17T04:52:11.083Z,22.90
2018-06-17T04:54:38.007Z,23.50
2018-06-17T04:57:04.975Z,23.90
2018-06-17T04:59:31.931Z,24.20
2018-06-17T05:01:59.032Z,24.50
2018-06-17T05:04:25.966Z,24.40
2018-06-17T05:06:52.908Z,24.80
2018-06-17T05:09:19.888Z,24.70
2018-06-17T05:11:46.821Z,24.50
2018-06-17T05:14:13.751Z,23.90
2018-06-17T05:16:40.960Z,23.40
2018-06-17T05:19:07.874Z,23.10
2018-06-17T05:24:01.998Z,22.40
2018-06-17T05:26:28.930Z,22.10
2018-06-17T05:28:55.869Z,22.10
2018-06-17T05:31:22.822Z,22.00
2018-06-17T05:33:49.856Z,22.10
2018-06-17T05:36:16.814Z,22.10
2018-06-17T05:38:43.728Z,21.90
2018-06-17T05:43:37.722Z,22.10
2018-06-17T05:46:04.659Z,22.20
2018-06-17T05:48:31.591Z,22.30
2018-06-17T05:50:58.542Z,22.40
2018-06-17T05:53:25.548Z,22.40
2018-06-17T05:55:52.487Z,22.50
2018-06-17T05:58:19.449Z,22.80
2018-06-17T06:00:46.417Z,22.90
2018-06-17T06:03:13.967Z,23.10
2018-06-17T06:05:40.982Z,23.20
2018-06-17T06:08:07.991Z,23.50
2018-06-17T06:10:34.913Z,23.60
2018-06-17T06:13:01.929Z,23.80
2018-06-17T06:15:28.863Z,24.20
2018-06-17T06:17:55.789Z,24.30
2018-06-17T06:20:23.395Z,24.50
2018-06-17T06:22:50.483Z,25.00
2018-06-17T06:25:17.423Z,25.40
2018-06-17T06:27:44.367Z,25.70
2018-06-17T06:30:11.299Z,26.40
2018-06-17T06:32:38.237Z,26.70
2018-06-17T06:35:05.226Z,26.40
2018-06-17T06:37:32.185Z,27.00
2018-06-17T06:39:59.277Z,27.60
2018-06-17T06:42:26.263Z,27.80
2018-06-17T06:44:53.205Z,27.80
2018-06-17T06:47:20.161Z,27.80
2018-06-17T06:49:47.116Z,28.30
2018-06-17T06:52:14.209Z,28.00
2018-06-17T06:54:41.139Z,28.50
2018-06-17T06:57:08.185Z,29.50
2018-06-17T06:59:35.137Z,29.60
2018-06-17T07:02:13.826Z,30.50
2018-06-17T07:04:53.025Z,30.50
2018-06-17T07:07:31.898Z,30.00
2018-06-17T07:10:10.625Z,30.60
2018-06-17T07:12:37.769Z,31.30
2018-06-17T07:15:05.307Z,30.80
2018-06-17T07:17:44.115Z,30.50
2018-06-17T07:20:11.073Z,30.20
2018-06-17T07:22:38.025Z,30.30
2018-06-17T07:25:05.264Z,30.80
2018-06-17T07:27:43.947Z,30.90
2018-06-17T07:30:10.957Z,31.40
2018-06-17T07:32:37.915Z,31.80
2018-06-17T07:35:04.845Z,32.10
2018-06-17T07:37:31.794Z,32.20
2018-06-17T07:40:16.662Z,31.50
2018-06-17T07:42:44.009Z,30.80
2018-06-17T07:45:11.119Z,30.20
2018-06-17T07:47:38.053Z,30.40
2018-06-17T07:50:16.815Z,31.10
2018-06-17T07:52:55.447Z,31.10
2018-06-17T07:55:22.457Z,31.60
2018-06-17T07:57:49.409Z,31.00
2018-06-17T08:00:16.346Z,31.10
2018-06-17T08:02:43.336Z,30.60
2018-06-17T08:05:10.255Z,30.70
2018-06-17T08:07:37.291Z,31.00
2018-06-17T08:10:04.493Z,31.20
2018-06-17T08:12:31.425Z,30.70
2018-06-17T08:14:58.351Z,31.60
2018-06-17T08:29:40.508Z,32.00
2018-06-17T08:32:07.455Z,31.70
2018-06-17T08:34:34.394Z,31.50
2018-06-17T08:37:01.333Z,31.80
2018-06-17T08:39:28.305Z,31.60
2018-06-17T08:41:55.301Z,32.00
2018-06-17T08:44:22.395Z,31.40
2018-06-17T08:46:49.799Z,30.70
2018-06-17T08:54:11.296Z,30.60
2018-06-17T08:56:38.390Z,31.60
2018-06-17T08:59:05.314Z,32.60
2018-06-17T15:10:46.377Z,26.90
2018-06-17T15:13:13.689Z,26.80
2018-06-17T15:15:40.634Z,26.80
2018-06-17T15:18:08.636Z,26.60
2018-06-17T15:20:35.619Z,26.80
2018-06-17T15:30:24.699Z,27.20
2018-06-17T15:57:46.388Z,29.30
2018-06-17T16:02:40.591Z,27.80
2018-06-17T16:05:07.820Z,27.40
2018-06-17T16:07:35.079Z,27.30
2018-06-17T16:16:11.313Z,27.20
2018-06-17T16:18:44.210Z,27.30
2018-06-17T16:21:11.194Z,27.60
2018-06-17T16:23:38.814Z,27.60
2018-06-17T16:26:06.046Z,27.70
2018-06-17T16:28:33.096Z,27.70
2018-06-17T16:31:00.068Z,27.60
2018-06-17T16:33:27.070Z,27.40
2018-06-17T16:35:55.097Z,27.30
2018-06-17T16:38:22.985Z,26.80
2018-06-17T16:40:50.227Z,26.50
2018-06-17T16:43:17.237Z,26.40
2018-06-17T16:45:44.788Z,26.10
2018-06-17T16:48:11.941Z,26.10
2018-06-17T16:50:38.914Z,25.80
2018-06-17T16:53:11.912Z,25.70
2018-06-17T16:55:44.831Z,25.50
2018-06-17T16:58:17.709Z,25.40
2018-06-17T17:00:45.051Z,25.30
2018-06-17T17:03:12.224Z,25.20
2018-06-17T17:05:39.224Z,25.40
2018-06-17T17:08:06.186Z,25.40
2018-06-17T17:10:33.223Z,25.50
2018-06-17T17:13:00.387Z,25.50
2018-06-17T17:15:27.346Z,25.50
2018-06-17T17:17:54.310Z,25.50
2018-06-17T17:20:21.415Z,25.30
2018-06-17T17:22:48.435Z,25.10
2018-06-17T17:25:15.412Z,25.00
2018-06-17T17:27:42.352Z,24.90
2018-06-17T17:30:09.477Z,24.80
2018-06-17T17:32:42.624Z,24.80
2018-06-17T17:35:15.461Z,24.70
2018-06-17T17:37:48.360Z,24.60
2018-06-17T17:40:21.192Z,24.40
2018-06-17T17:42:48.230Z,24.30
2018-06-17T17:45:20.368Z,24.00
2018-06-17T17:47:47.405Z,23.90
2018-06-17T17:50:14.299Z,23.90
2018-06-17T17:52:41.466Z,23.80
2018-06-17T17:55:08.645Z,23.80
2018-06-17T17:57:35.706Z,23.80
2018-06-17T18:00:02.725Z,23.70
2018-06-17T18:02:29.901Z,23.70
2018-06-17T18:04:57.184Z,23.60
2018-06-17T18:07:24.190Z,23.60
2018-06-17T18:09:51.130Z,23.50
2018-06-17T18:12:18.102Z,23.60
2018-06-17T18:14:45.243Z,23.40
2018-06-17T18:17:12.260Z,23.40
2018-06-17T18:19:39.525Z,23.30
2018-06-17T18:22:06.692Z,23.20
2018-06-17T18:24:33.739Z,23.20
2018-06-17T18:27:06.668Z,23.20
2018-06-17T18:29:39.542Z,23.10
2018-06-17T18:32:12.322Z,23.00
2018-06-17T18:34:45.711Z,23.00
2018-06-17T18:37:12.726Z,23.00
2018-06-17T18:39:39.850Z,22.90
2018-06-17T18:42:06.967Z,22.80
2018-06-17T18:44:34.113Z,22.80
2018-06-17T18:47:01.144Z,22.70
2018-06-17T18:49:28.117Z,22.60
2018-06-17T18:51:55.255Z,22.60
2018-06-17T18:54:22.269Z,22.60
2018-06-17T18:56:50.452Z,22.50
2018-06-17T19:01:44.756Z,22.40
2018-06-17T19:04:11.756Z,22.30
2018-06-17T19:06:38.851Z,22.30
2018-06-17T19:09:12.852Z,22.30
2018-06-17T19:11:46.060Z,22.20
2018-06-17T19:15:21.589Z,22.30
2018-06-17T19:17:54.417Z,22.60
2018-06-17T19:20:22.218Z,22.60
2018-06-17T19:22:49.189Z,22.60
2018-06-17T19:25:16.282Z,22.60
2018-06-17T19:27:43.479Z,22.40
2018-06-17T19:30:10.640Z,22.40
2018-06-17T19:32:37.589Z,22.50
2018-06-17T19:35:04.821Z,22.40
2018-06-17T19:37:31.784Z,22.50
2018-06-17T19:39:59.515Z,22.40
2018-06-17T19:42:26.473Z,22.40
2018-06-17T19:44:53.688Z,22.40
2018-06-17T19:47:20.846Z,22.40
2018-06-17T19:49:53.740Z,22.40
2018-06-17T19:52:26.476Z,22.30
2018-06-17T19:54:59.431Z,22.50
2018-06-17T19:57:32.065Z,22.30
2018-06-17T20:00:04.919Z,22.40
2018-06-17T20:02:32.133Z,22.40
2018-06-17T20:04:59.078Z,22.20
2018-06-17T20:07:26.305Z,22.00
2018-06-17T20:09:53.386Z,22.30
2018-06-17T20:12:20.602Z,22.20
2018-06-17T20:14:47.659Z,22.10
2018-06-17T20:17:14.603Z,22.00
2018-06-17T20:19:41.667Z,21.90
2018-06-17T20:22:08.638Z,22.00
2018-06-17T20:24:36.081Z,21.90
2018-06-17T20:27:03.137Z,21.90
2018-06-17T20:29:30.087Z,21.70
2018-06-17T20:32:03.123Z,21.80
2018-06-17T20:34:36.140Z,21.70
2018-06-17T20:37:08.869Z,21.60
2018-06-17T20:39:41.646Z,21.50
2018-06-17T20:42:14.473Z,21.40
2018-06-17T20:44:41.418Z,21.30
2018-06-17T20:47:08.409Z,21.20
2018-06-17T20:49:35.666Z,21.30
2018-06-17T20:52:02.964Z,21.30
2018-06-17T20:54:29.888Z,21.20
2018-06-17T20:56:56.867Z,21.10
2018-06-17T20:59:23.952Z,21.30
2018-06-17T21:01:50.896Z,21.20
2018-06-17T21:04:17.866Z,21.30
2018-06-17T21:06:44.857Z,21.20
2018-06-17T21:09:11.969Z,21.20
2018-06-17T21:11:39.193Z,21.00
2018-06-17T21:14:06.451Z,21.00
2018-06-17T21:16:33.429Z,20.90
2018-06-17T21:19:06.516Z,20.90
2018-06-17T21:21:39.337Z,21.10
2018-06-17T21:24:12.247Z,21.00
2018-06-17T21:26:45.227Z,21.00
2018-06-17T21:29:12.172Z,20.90
2018-06-17T21:31:39.289Z,20.80
2018-06-17T21:34:06.757Z,20.80
2018-06-17T21:36:33.685Z,20.80
2018-06-17T21:39:00.643Z,20.60
2018-06-17T21:41:28.170Z,20.50
2018-06-17T21:43:55.201Z,20.50
2018-06-17T21:46:22.129Z,20.60
2018-06-17T21:48:49.119Z,20.40
2018-06-17T21:51:16.083Z,20.60
2018-06-17T21:53:43.040Z,20.50
2018-06-17T21:56:10.355Z,20.30
2018-06-17T21:58:43.334Z,20.30
2018-06-17T22:01:10.522Z,20.20
2018-06-17T22:03:37.453Z,20.10
2018-06-17T22:06:04.381Z,20.10
2018-06-17T22:08:37.253Z,20.00
2018-06-17T22:11:10.084Z,20.00
2018-06-17T22:13:42.805Z,20.00
2018-06-17T22:16:15.649Z,20.00
2018-06-17T22:18:42.846Z,19.90
2018-06-17T22:21:09.785Z,19.80
2018-06-17T22:23:37.007Z,19.90
2018-06-17T22:26:04.135Z,19.90
2018-06-17T22:28:31.061Z,19.90
2018-06-17T22:30:57.984Z,19.80
2018-06-17T22:33:24.940Z,19.90
2018-06-17T22:35:51.903Z,19.90
2018-06-17T22:38:18.822Z,19.70
2018-06-17T22:40:45.901Z,19.90
2018-06-17T22:43:13.105Z,20.00
2018-06-17T22:45:40.035Z,19.90
2018-06-17T22:48:07.023Z,20.00
2018-06-17T22:50:33.978Z,20.00
2018-06-17T22:53:12.900Z,20.20
2018-06-17T22:55:39.819Z,20.00
2018-06-17T22:58:12.826Z,19.90
2018-06-17T23:00:45.540Z,19.90
2018-06-17T23:03:18.377Z,19.80
2018-06-17T23:05:51.034Z,19.70
2018-06-17T23:08:24.045Z,19.80
2018-06-17T23:10:51.072Z,19.80
2018-06-17T23:13:18.002Z,19.90
2018-06-17T23:15:45.808Z,19.90
2018-06-17T23:18:12.787Z,19.90
2018-06-17T23:20:39.731Z,19.90
2018-06-17T23:23:06.813Z,20.00
2018-06-17T23:25:33.742Z,19.90
2018-06-17T23:28:00.661Z,19.70
2018-06-17T23:30:27.907Z,19.70
2018-06-17T23:32:55.105Z,19.60
2018-06-17T23:35:22.069Z,19.40
2018-06-17T23:37:49.028Z,19.50
2018-06-17T23:40:16.115Z,19.40
2018-06-17T23:42:43.044Z,19.60
2018-06-17T23:45:09.992Z,19.70
2018-06-17T23:47:42.836Z,19.70
2018-06-17T23:50:15.706Z,19.80
2018-06-17T23:52:48.520Z,19.80
2018-06-17T23:55:21.333Z,19.70
2018-06-17T23:57:48.245Z,19.40
